Time;durP1;ratioP1;P1;durP2;ratioP2;P2;SDS_P1;SDS_P2;PMS_P1;PMS_P2;Temp;Humidity;BMP_temperature;BMP_pressure;BME280_temperature;BME280_humidity;BME280_pressure;Samples;Min_cycle;Max_cycle;Signal;HPM_P1;HPM_P2
2021/08/26 00:00:30;;;;;;;8.97;4.13;;;16.80;1.00;;;;;;5073547;28;20827;-78
2021/08/26 00:06:00;;;;;;;10.60;4.83;;;16.80;1.00;;;;;;5073615;28;20765;-77
2021/08/26 00:08:32;;;;;;;13.17;5.67;;;16.80;1.00;;;;;;5073261;28;20881;-77
2021/08/26 00:11:06;;;;;;;7.73;4.70;;;16.80;1.00;;;;;;5061954;28;20904;-77
2021/08/26 00:13:46;;;;;;;7.40;3.90;;;16.80;1.00;;;;;;5053984;28;20366;-76
2021/08/26 00:16:12;;;;;;;10.40;4.70;;;16.80;1.00;;;;;;5053771;28;20397;-77
2021/08/26 00:18:39;;;;;;;10.77;4.57;;;16.80;1.00;;;;;;5059379;28;20392;-77
2021/08/26 00:21:06;;;;;;;10.20;4.40;;;16.80;1.00;;;;;;5071749;28;20458;-77
2021/08/26 00:23:48;;;;;;;9.40;5.40;;;16.80;1.00;;;;;;5073667;28;20442;-77
2021/08/26 00:26:24;;;;;;;11.17;6.50;;;16.60;1.00;;;;;;5072636;28;20376;-77
2021/08/26 00:28:54;;;;;;;11.47;4.77;;;16.60;1.00;;;;;;5073769;28;20459;-77
2021/08/26 00:31:30;;;;;;;15.50;6.40;;;16.60;1.00;;;;;;5063338;28;20424;-77
2021/08/26 00:34:06;;;;;;;15.83;5.73;;;16.60;1.00;;;;;;5053962;28;20402;-77
2021/08/26 00:36:36;;;;;;;7.40;5.13;;;16.70;1.00;;;;;;5057406;28;20417;-77
2021/08/26 00:39:18;;;;;;;11.30;5.57;;;16.70;1.00;;;;;;5057027;28;20863;-77
2021/08/26 00:41:48;;;;;;;16.53;7.20;;;16.60;1.00;;;;;;5073741;28;20384;-77
2021/08/26 00:44:19;;;;;;;12.33;6.90;;;16.70;1.00;;;;;;5077538;28;20442;-78
2021/08/26 00:46:46;;;;;;;14.20;6.83;;;16.80;1.00;;;;;;5076695;28;20365;-78
2021/08/26 00:49:16;;;;;;;19.43;6.97;;;16.80;1.00;;;;;;5075454;28;20398;-78
2021/08/26 00:51:43;;;;;;;9.60;6.70;;;16.90;1.00;;;;;;5075211;28;20910;-78
2021/08/26 00:54:09;;;;;;;13.83;6.93;;;17.00;1.00;;;;;;5076930;28;20786;-78
2021/08/26 00:56:59;;;;;;;12.80;6.60;;;17.00;1.00;;;;;;5076583;28;20484;-78
2021/08/26 00:59:36;;;;;;;11.03;6.20;;;17.10;1.00;;;;;;5071808;28;20211;-77
2021/08/26 01:02:29;;;;;;;13.30;7.53;;;17.20;1.00;;;;;;5056860;28;20398;-77
2021/08/26 01:05:21;;;;;;;9.03;6.30;;;17.30;1.00;;;;;;5056789;28;20447;-77
2021/08/26 01:08:08;;;;;;;8.80;7.00;;;17.30;1.00;;;;;;5056186;28;20469;-77
2021/08/26 01:10:36;;;;;;;13.70;6.90;;;17.30;1.00;;;;;;5055068;28;20416;-77
2021/08/26 01:13:12;;;;;;;10.07;7.40;;;17.30;1.00;;;;;;5075183;28;20407;-77
2021/08/26 01:16:08;;;;;;;11.50;6.10;;;17.40;1.00;;;;;;5064909;28;20410;-77
2021/08/26 01:18:43;;;;;;;14.37;6.43;;;17.40;1.00;;;;;;5058532;28;20806;-77
2021/08/26 01:21:21;;;;;;;8.90;6.57;;;17.40;1.00;;;;;;5076384;28;20401;-77
2021/08/26 01:23:58;;;;;;;11.37;7.23;;;17.50;1.00;;;;;;5056287;28;20812;-77
2021/08/26 01:26:31;;;;;;;14.93;7.30;;;17.40;1.00;;;;;;5056158;28;20386;-77
2021/08/26 01:29:13;;;;;;;11.50;7.77;;;17.50;1.00;;;;;;5056425;28;20419;-78
2021/08/26 01:31:39;;;;;;;10.13;7.10;;;17.50;1.00;;;;;;5055974;28;20422;-78
2021/08/26 01:34:29;;;;;;;14.80;7.37;;;17.50;1.00;;;;;;5056098;28;20405;-78
2021/08/26 01:37:23;;;;;;;13.00;7.87;;;17.50;1.00;;;;;;5056369;28;20377;-78
2021/08/26 01:39:50;;;;;;;13.13;8.73;;;17.50;1.00;;;;;;5070253;28;20433;-78
2021/08/26 01:42:35;;;;;;;14.40;8.63;;;17.50;1.00;;;;;;5076039;28;20420;-78
2021/08/26 01:45:03;;;;;;;14.47;8.20;;;17.50;1.00;;;;;;5076121;28;20541;-77
2021/08/26 01:47:36;;;;;;;13.60;8.00;;;17.50;1.00;;;;;;5075309;28;20413;-77
2021/08/26 01:50:04;;;;;;;13.63;8.47;;;17.50;1.00;;;;;;5075475;28;20722;-77
2021/08/26 01:52:30;;;;;;;15.70;8.73;;;17.50;1.00;;;;;;5076046;28;20376;-77
2021/08/26 01:55:17;;;;;;;16.07;9.47;;;17.50;1.00;;;;;;5075483;28;20451;-77
2021/08/26 01:57:43;;;;;;;14.90;8.80;;;17.40;1.00;;;;;;5075898;28;20482;-77
2021/08/26 02:00:24;;;;;;;18.60;8.30;;;17.50;1.00;;;;;;5075807;28;20446;-78
2021/08/26 02:03:00;;;;;;;13.17;8.87;;;17.40;1.00;;;;;;5074734;28;20597;-78
2021/08/26 02:05:30;;;;;;;12.90;8.50;;;17.40;1.00;;;;;;5075459;28;20383;-78
2021/08/26 02:08:06;;;;;;;10.97;8.03;;;17.40;1.00;;;;;;5075433;28;20379;-78
2021/08/26 02:10:36;;;;;;;15.40;8.23;;;17.40;1.00;;;;;;5075114;28;20416;-78
2021/08/26 02:13:06;;;;;;;8.83;6.80;;;17.50;1.00;;;;;;5075075;28;20429;-78
2021/08/26 02:15:36;;;;;;;13.83;7.40;;;17.50;1.00;;;;;;5075907;28;20897;-77
2021/08/26 02:21:27;;;;;;;8.23;6.57;;;17.50;1.00;;;;;;5074850;28;20416;-77
2021/08/26 02:24:06;;;;;;;7.83;6.57;;;17.40;1.00;;;;;;5074909;28;20425;-77
2021/08/26 02:26:32;;;;;;;13.93;6.00;;;17.40;1.00;;;;;;5075069;28;20438;-77
2021/08/26 02:29:06;;;;;;;7.57;5.77;;;17.40;1.00;;;;;;5075212;28;20455;-77
2021/08/26 02:31:53;;;;;;;10.53;6.93;;;17.30;1.00;;;;;;5075148;28;20428;-77
2021/08/26 02:34:19;;;;;;;8.07;6.30;;;17.30;1.00;;;;;;5068278;28;20412;-77
2021/08/26 02:36:48;;;;;;;9.50;6.33;;;17.30;1.00;;;;;;5059011;28;20389;-77
2021/08/26 02:39:18;;;;;;;10.37;7.33;;;17.30;1.00;;;;;;5073296;28;20607;-77
2021/08/26 02:41:48;;;;;;;11.47;7.50;;;17.30;1.00;;;;;;5075044;28;20400;-77
2021/08/26 02:44:21;;;;;;;11.93;7.57;;;17.20;1.00;;;;;;5074564;28;20424;-77
2021/08/26 02:47:00;;;;;;;10.10;8.70;;;17.20;1.00;;;;;;5074616;28;20394;-78
2021/08/26 02:49:30;;;;;;;11.23;7.50;;;17.20;1.00;;;;;;5073063;28;20884;-78
2021/08/26 02:52:23;;;;;;;9.60;7.03;;;17.10;1.00;;;;;;5074430;28;20376;-78
2021/08/26 02:54:49;;;;;;;10.00;7.30;;;17.10;1.00;;;;;;5074534;28;20391;-78
2021/08/26 02:57:41;;;;;;;9.00;7.60;;;17.10;1.00;;;;;;5073644;28;20387;-78
2021/08/26 03:00:12;;;;;;;13.50;9.03;;;17.10;1.00;;;;;;5074926;28;20160;-77
2021/08/26 03:02:54;;;;;;;11.50;9.07;;;17.10;1.00;;;;;;5073913;28;20393;-76
2021/08/26 03:05:30;;;;;;;11.80;8.63;;;17.00;1.00;;;;;;5061662;28;20424;-77
2021/08/26 03:07:56;;;;;;;12.20;8.93;;;17.00;1.00;;;;;;5054246;28;20475;-77
2021/08/26 03:10:30;;;;;;;13.70;9.20;;;16.90;1.00;;;;;;5063222;28;20372;-77
2021/08/26 03:13:00;;;;;;;14.40;9.50;;;16.90;1.00;;;;;;5074036;28;20820;-76
2021/08/26 03:15:26;;;;;;;16.03;10.80;;;16.90;1.00;;;;;;5074366;28;20775;-76
2021/08/26 03:17:54;;;;;;;14.57;10.03;;;16.90;1.00;;;;;;5073980;28;20425;-76
2021/08/26 03:20:20;;;;;;;14.87;10.83;;;16.80;1.00;;;;;;5074039;28;20254;-77
2021/08/26 03:22:54;;;;;;;14.93;10.43;;;16.80;1.00;;;;;;5074118;28;20405;-77
2021/08/26 03:25:20;;;;;;;15.10;10.80;;;16.80;1.00;;;;;;5073765;28;20388;-76
2021/08/26 03:27:46;;;;;;;16.77;11.67;;;16.70;1.00;;;;;;5074049;28;20720;-77
2021/08/26 03:30:13;;;;;;;21.17;12.20;;;16.70;1.00;;;;;;5074689;28;20164;-77
2021/08/26 03:32:59;;;;;;;21.13;10.90;;;16.70;1.00;;;;;;5074615;28;20630;-77
2021/08/26 03:35:25;;;;;;;17.30;12.27;;;16.60;1.00;;;;;;5074112;28;20379;-76
2021/08/26 03:37:54;;;;;;;16.43;11.60;;;16.60;1.00;;;;;;5073853;28;20364;-76
2021/08/26 03:40:24;;;;;;;19.13;12.40;;;16.60;1.00;;;;;;5074082;28;20164;-76
2021/08/26 03:42:50;;;;;;;16.00;11.60;;;16.70;1.00;;;;;;5074012;28;20468;-77
2021/08/26 03:45:18;;;;;;;18.07;11.60;;;16.60;1.00;;;;;;5073885;28;20506;-77
2021/08/26 03:47:48;;;;;;;15.30;11.20;;;16.50;1.00;;;;;;5074086;28;20281;-77
2021/08/26 03:50:18;;;;;;;15.23;11.43;;;16.50;1.00;;;;;;5073641;28;20907;-77
2021/08/26 03:52:48;;;;;;;13.50;10.40;;;16.50;1.00;;;;;;5073675;28;20738;-77
2021/08/26 03:55:14;;;;;;;23.30;12.07;;;16.50;1.00;;;;;;5073197;28;20384;-76
2021/08/26 03:57:42;;;;;;;18.53;11.30;;;16.50;1.00;;;;;;5073251;28;20387;-77
2021/08/26 04:00:08;;;;;;;20.30;12.50;;;16.50;1.00;;;;;;5059305;28;20193;-77
2021/08/26 04:02:34;;;;;;;16.27;11.73;;;16.50;1.00;;;;;;5052490;28;20395;-78
2021/08/26 04:05:00;;;;;;;15.97;11.70;;;16.50;1.00;;;;;;5053055;28;20443;-78
2021/08/26 04:07:31;;;;;;;22.30;12.43;;;16.60;1.00;;;;;;5069678;28;20910;-78
2021/08/26 04:10:23;;;;;;;20.87;12.43;;;16.40;1.00;;;;;;5057741;28;20148;-78
2021/08/26 04:12:49;;;;;;;19.80;13.40;;;16.40;1.00;;;;;;5086720;28;20413;-78
2021/08/26 04:15:36;;;;;;;18.67;12.77;;;16.40;1.00;;;;;;5076427;28;20383;-78
2021/08/26 04:18:06;;;;;;;17.77;12.63;;;16.40;1.00;;;;;;5072584;28;20175;-78
2021/08/26 04:20:36;;;;;;;16.90;11.40;;;16.30;1.00;;;;;;5077431;28;20485;-78
2021/08/26 04:23:07;;;;;;;20.20;12.40;;;16.30;1.00;;;;;;5077517;28;20407;-78
2021/08/26 04:28:54;;;;;;;22.90;12.57;;;;;;;;;;5072957;28;20428;-86
2021/08/26 04:31:20;;;;;;;23.00;11.70;;;16.30;1.00;;;;;;5071192;28;20940;-81
2021/08/26 04:33:46;;;;;;;16.90;11.70;;;16.30;1.00;;;;;;5070056;28;20393;-81
2021/08/26 04:36:30;;;;;;;18.03;11.30;;;16.30;1.00;;;;;;5069889;28;20164;-81
2021/08/26 04:39:00;;;;;;;14.90;10.10;;;16.30;1.00;;;;;;5062673;28;20183;-82
2021/08/26 04:41:53;;;;;;;14.63;10.33;;;16.30;1.00;;;;;;5063423;28;20388;-81
2021/08/26 04:44:24;;;;;;;16.53;10.10;;;16.20;1.00;;;;;;5060711;28;20413;-81
2021/08/26 04:46:49;;;;;;;17.53;9.20;;;16.20;1.00;;;;;;5058116;28;20449;-86
2021/08/26 04:49:18;;;;;;;13.40;9.53;;;16.20;1.00;;;;;;5076362;28;20408;-86
2021/08/26 04:55:23;;;;;;;16.00;9.77;;;16.30;1.00;;;;;;5070749;28;20483;-86
2021/08/26 05:01:11;;;;;;;12.07;8.90;;;16.40;1.00;;;;;;5066552;28;20431;-82
2021/08/26 05:03:36;;;;;;;14.30;9.70;;;16.40;1.00;;;;;;5055385;28;20450;-81
2021/08/26 05:06:06;;;;;;;13.60;8.80;;;16.40;1.00;;;;;;5082577;28;20224;-82
2021/08/26 05:08:42;;;;;;;13.03;9.60;;;16.40;1.00;;;;;;5074757;28;20169;-82
2021/08/26 05:14:49;;;;;;;12.63;8.00;;;16.40;1.00;;;;;;5055971;28;20425;-82
2021/08/26 05:17:35;;;;;;;12.60;8.57;;;16.40;1.00;;;;;;5067867;28;20397;-82
2021/08/26 05:20:18;;;;;;;14.03;8.10;;;16.30;1.00;;;;;;5055407;28;20429;-82
2021/08/26 05:23:05;;;;;;;13.03;9.10;;;16.40;1.00;;;;;;5057531;28;20441;-82
2021/08/26 05:25:36;;;;;;;13.40;8.70;;;16.40;1.00;;;;;;5061885;28;20395;-82
2021/08/26 05:28:35;;;;;;;12.53;7.93;;;16.50;1.00;;;;;;5074656;28;20727;-82
2021/08/26 05:34:23;;;;;;;12.17;8.10;;;16.70;1.00;;;;;;5056080;28;20435;-86
2021/08/26 05:36:54;;;;;;;16.53;8.60;;;16.80;1.00;;;;;;5071371;28;20397;-86
2021/08/26 05:39:48;;;;;;;13.40;9.40;;;16.80;1.00;;;;;;5063635;28;20187;-86
2021/08/26 05:43:05;;;;;;;14.20;10.20;;;16.80;1.00;;;;;;5080415;28;20433;-87
2021/08/26 05:45:42;;;;;;;14.00;9.20;;;16.90;1.00;;;;;;5056496;28;20433;-87
2021/08/26 05:48:36;;;;;;;12.63;9.07;;;17.00;1.00;;;;;;5078567;28;20770;-87
2021/08/26 05:51:02;;;;;;;21.43;9.97;;;17.00;1.00;;;;;;5070986;28;20468;-87
2021/08/26 05:53:36;;;;;;;18.33;9.03;;;17.00;1.00;;;;;;5074166;28;20421;-86
2021/08/26 05:56:06;;;;;;;13.40;8.93;;;;;;;;;;5065896;28;20832;-87
2021/08/26 05:58:32;;;;;;;15.07;9.47;;;17.00;1.00;;;;;;5067775;28;20431;-87
2021/08/26 06:01:06;;;;;;;11.43;8.03;;;17.10;1.00;;;;;;5067963;28;20513;-86
2021/08/26 06:03:36;;;;;;;14.30;8.97;;;17.10;1.00;;;;;;5073097;28;20281;-78
2021/08/26 06:06:06;;;;;;;13.17;8.27;;;17.10;1.00;;;;;;5070835;28;20393;-78
2021/08/26 06:08:36;;;;;;;13.73;6.70;;;17.20;1.00;;;;;;5074965;28;20416;-78
2021/08/26 06:11:12;;;;;;;7.00;5.90;;;17.10;1.00;;;;;;5075294;28;20736;-79
2021/08/26 06:13:42;;;;;;;8.10;4.83;;;16.90;1.00;;;;;;5064686;28;20440;-78
2021/08/26 06:16:12;;;;;;;4.00;3.37;;;16.90;1.00;;;;;;5095638;28;20376;-78
2021/08/26 06:18:48;;;;;;;4.67;4.07;;;16.90;1.00;;;;;;5095823;28;20412;-76
2021/08/26 06:21:16;;;;;;;6.53;4.83;;;16.90;1.00;;;;;;5057952;28;21094;-76
2021/08/26 06:23:42;;;;;;;9.23;6.10;;;17.00;1.00;;;;;;5057825;28;20862;-76
2021/08/26 06:26:25;;;;;;;9.77;5.70;;;17.00;1.00;;;;;;5074570;28;20422;-76
2021/08/26 06:29:00;;;;;;;4.83;3.93;;;17.10;1.00;;;;;;5074637;28;20863;-76
2021/08/26 06:31:32;;;;;;;6.97;4.57;;;17.20;1.00;;;;;;5056080;28;20800;-76
2021/08/26 06:33:57;;;;;;;4.30;3.90;;;17.30;1.00;;;;;;5054808;28;20481;-78
2021/08/26 06:36:30;;;;;;;7.90;4.70;;;17.30;1.00;;;;;;5054349;28;20530;-78
2021/08/26 06:39:12;;;;;;;9.83;4.10;;;17.30;1.00;;;;;;5061313;28;20677;-78
2021/08/26 06:41:48;;;;;;;5.00;4.33;;;17.40;1.00;;;;;;5066195;28;20450;-78
2021/08/26 06:44:18;;;;;;;6.67;4.13;;;17.50;1.00;;;;;;5073496;28;20429;-78
2021/08/26 06:46:47;;;;;;;4.17;3.50;;;17.50;1.00;;;;;;5071598;28;20526;-76
2021/08/26 06:49:24;;;;;;;5.23;3.77;;;17.40;1.00;;;;;;5055887;28;20485;-76
2021/08/26 06:51:50;;;;;;;4.63;3.50;;;17.60;1.00;;;;;;5059022;28;20950;-76
2021/08/26 06:54:18;;;;;;;6.20;3.13;;;17.60;1.00;;;;;;5071287;28;20414;-76
2021/08/26 06:56:48;;;;;;;4.20;3.80;;;17.60;1.00;;;;;;5072084;28;20271;-77
2021/08/26 06:59:18;;;;;;;3.87;3.57;;;17.70;1.00;;;;;;5074502;28;20476;-81
2021/08/26 07:02:17;;;;;;;3.20;2.93;;;17.60;1.00;;;;;;5061665;28;20893;-81
2021/08/26 07:05:35;;;;;;;3.43;2.67;;;17.40;1.00;;;;;;5069234;28;20469;-81
2021/08/26 07:08:06;;;;;;;2.47;2.27;;;17.30;1.00;;;;;;5053567;28;20371;-81
2021/08/26 07:11:05;;;;;;;2.73;2.53;;;17.30;1.00;;;;;;5053844;28;20400;-82
2021/08/26 07:13:48;;;;;;;3.33;2.13;;;17.30;1.00;;;;;;5053191;28;20414;-77
2021/08/26 07:16:18;;;;;;;4.83;2.20;;;17.20;1.00;;;;;;5053963;28;20799;-76
2021/08/26 07:18:48;;;;;;;5.47;2.40;;;17.30;1.00;;;;;;5061920;28;20414;-78
2021/08/26 07:21:13;;;;;;;5.07;2.23;;;17.30;1.00;;;;;;5073951;28;20378;-78
2021/08/26 07:24:05;;;;;;;3.63;2.00;;;17.30;1.00;;;;;;5073611;28;20781;-78
2021/08/26 07:26:31;;;;;;;7.60;2.27;;;17.40;1.00;;;;;;5054314;28;20160;-78
2021/08/26 07:28:57;;;;;;;7.37;2.50;;;17.50;1.00;;;;;;5065770;28;20437;-79
2021/08/26 07:31:24;;;;;;;5.67;2.10;;;17.50;1.00;;;;;;5082954;28;20175;-77
2021/08/26 07:33:50;;;;;;;4.27;2.27;;;17.50;1.00;;;;;;5084187;28;20172;-78
2021/08/26 07:36:30;;;;;;;3.40;2.40;;;17.60;1.00;;;;;;5073150;28;21032;-77
2021/08/26 07:39:00;;;;;;;11.07;5.63;;;17.70;1.00;;;;;;5075949;28;20178;-78
2021/08/26 07:41:29;;;;;;;5.93;2.40;;;17.70;1.00;;;;;;5094037;28;20506;-78
2021/08/26 07:44:00;;;;;;;11.57;2.30;;;17.60;1.00;;;;;;5082036;28;20461;-78
2021/08/26 07:46:48;;;;;;;4.70;2.10;;;17.60;1.00;;;;;;5072802;28;20770;-78
2021/08/26 07:49:18;;;;;;;5.70;2.50;;;17.60;1.00;;;;;;5069107;28;20433;-78
2021/08/26 07:52:20;;;;;;;4.40;1.90;;;17.70;1.00;;;;;;5067059;28;20503;-77
2021/08/26 07:54:54;;;;;;;4.70;1.90;;;18.00;1.00;;;;;;5073056;28;20415;-77
2021/08/26 07:57:24;;;;;;;4.17;2.13;;;18.00;1.00;;;;;;5062984;28;20885;-78
2021/08/26 07:59:54;;;;;;;3.23;1.90;;;18.20;1.00;;;;;;5055378;28;20408;-77
2021/08/26 08:02:25;;;;;;;9.07;2.30;;;18.30;1.00;;;;;;5055425;28;20430;-78
2021/08/26 08:04:54;;;;;;;5.23;1.60;;;18.40;1.00;;;;;;5057064;28;20457;-78
2021/08/26 08:07:20;;;;;;;2.90;1.70;;;18.60;1.00;;;;;;5067292;28;20448;-77
2021/08/26 08:09:45;;;;;;;4.13;2.20;;;18.90;1.00;;;;;;5053352;28;20463;-78
2021/08/26 08:12:11;;;;;;;3.87;2.07;;;19.10;1.00;;;;;;5054286;28;20618;-78
2021/08/26 08:14:39;;;;;;;5.43;1.73;;;;;;;;;;5068259;28;20171;-78
2021/08/26 08:17:07;;;;;;;5.23;2.07;;;19.70;1.00;;;;;;5053552;28;20179;-78
2021/08/26 08:19:42;;;;;;;4.07;2.00;;;19.80;1.00;;;;;;5053440;28;20544;-76
2021/08/26 08:22:08;;;;;;;4.47;1.87;;;20.10;1.00;;;;;;5053256;28;20475;-76
2021/08/26 08:24:33;;;;;;;4.33;1.80;;;20.10;1.00;;;;;;5060143;28;20512;-76
2021/08/26 08:26:59;;;;;;;4.20;1.47;;;20.30;1.00;;;;;;5069133;28;20634;-76
2021/08/26 08:29:25;;;;;;;2.93;1.60;;;20.60;1.00;;;;;;5053163;28;20160;-76
2021/08/26 08:31:54;;;;;;;8.50;1.57;;;20.50;1.00;;;;;;5053152;28;20179;-76
2021/08/26 08:34:20;;;;;;;3.57;1.90;;;20.80;1.00;;;;;;5054160;28;20188;-77
2021/08/26 08:36:48;;;;;;;3.07;1.80;;;20.80;1.00;;;;;;5073314;28;20405;-77
2021/08/26 08:39:25;;;;;;;7.43;1.60;;;20.70;1.00;;;;;;5073029;28;20547;-77
2021/08/26 08:41:54;;;;;;;10.80;1.77;;;20.60;1.00;;;;;;5058402;28;20748;-77
2021/08/26 08:44:20;;;;;;;7.80;2.07;;;20.50;1.00;;;;;;5053253;28;20834;-77
2021/08/26 08:46:49;;;;;;;6.77;2.37;;;20.50;1.00;;;;;;5051941;28;20407;-77
2021/08/26 08:49:21;;;;;;;4.07;1.67;;;20.40;1.00;;;;;;5055723;28;20184;-77
2021/08/26 08:51:50;;;;;;;2.57;1.60;;;20.50;1.00;;;;;;5062925;28;20432;-77
2021/08/26 08:54:19;;;;;;;3.70;1.40;;;20.40;1.00;;;;;;5072969;28;20488;-77
2021/08/26 08:57:06;;;;;;;3.67;1.70;;;20.40;1.00;;;;;;5076197;28;20424;-77
2021/08/26 08:59:36;;;;;;;6.80;1.67;;;20.50;1.00;;;;;;5071436;28;20476;-77
2021/08/26 09:02:02;;;;;;;3.63;1.70;;;20.70;1.00;;;;;;5062452;28;20437;-77
2021/08/26 09:04:30;;;;;;;3.03;1.30;;;20.80;1.00;;;;;;5063332;28;20464;-77
2021/08/26 09:07:00;;;;;;;3.17;1.83;;;20.80;1.00;;;;;;5068164;28;20517;-77
2021/08/26 09:09:51;;;;;;;4.60;1.80;;;20.90;1.00;;;;;;5056152;28;20933;-78
2021/08/26 09:12:17;;;;;;;2.27;1.37;;;20.90;1.00;;;;;;5069044;28;20414;-77
2021/08/26 09:14:43;;;;;;;3.13;1.40;;;21.00;1.00;;;;;;5075168;28;20475;-77
2021/08/26 09:17:27;;;;;;;2.37;1.30;;;21.30;1.00;;;;;;5075315;28;20920;-77
2021/08/26 09:20:09;;;;;;;3.50;1.43;;;21.40;1.00;;;;;;5076874;28;20164;-77
2021/08/26 09:22:37;;;;;;;2.40;1.13;;;21.70;1.00;;;;;;5075954;28;20443;-77
2021/08/26 09:25:07;;;;;;;2.80;1.20;;;21.80;1.00;;;;;;5076210;28;20454;-77
2021/08/26 09:27:44;;;;;;;2.80;1.10;;;22.10;1.00;;;;;;5066051;28;20960;-77
2021/08/26 09:30:20;;;;;;;3.90;1.50;;;22.20;1.00;;;;;;5056463;28;20428;-77
2021/08/26 09:32:57;;;;;;;3.07;1.40;;;22.30;1.00;;;;;;5065238;28;20521;-77
2021/08/26 09:35:29;;;;;;;4.23;1.37;;;22.30;1.00;;;;;;5056232;28;20405;-76
2021/08/26 09:38:06;;;;;;;3.73;1.63;;;22.40;1.00;;;;;;5056248;28;20439;-76
2021/08/26 09:40:51;;;;;;;5.13;1.67;;;22.30;1.00;;;;;;5088001;28;20769;-77
2021/08/26 09:43:31;;;;;;;4.57;1.60;;;22.20;1.00;;;;;;5065335;28;20435;-76
2021/08/26 09:45:57;;;;;;;6.67;1.87;;;22.00;1.00;;;;;;5075727;28;20481;-77
2021/08/26 09:48:24;;;;;;;3.93;1.80;;;;;;;;;;5074888;28;20416;-76
2021/08/26 09:50:54;;;;;;;2.83;1.50;;;21.90;1.00;;;;;;5072980;28;20213;-77
2021/08/26 09:54:05;;;;;;;3.43;1.40;;;22.10;1.00;;;;;;5056138;28;20406;-84
2021/08/26 09:56:43;;;;;;;5.60;1.67;;;22.20;1.00;;;;;;5062908;28;20428;-74
2021/08/26 09:59:46;;;;;;;4.83;2.10;;;22.20;1.00;;;;;;5059454;28;20441;-85
2021/08/26 10:02:12;;;;;;;4.87;2.10;;;22.00;1.00;;;;;;5049467;28;20841;-85
2021/08/26 10:04:42;;;;;;;12.23;1.80;;;22.20;1.00;;;;;;5033114;28;20891;-85
2021/08/26 10:07:18;;;;;;;4.83;2.10;;;22.30;1.00;;;;;;5033048;28;20947;-85
2021/08/26 10:09:54;;;;;;;3.90;1.63;;;22.40;1.00;;;;;;5033277;28;20406;-85
2021/08/26 10:12:30;;;;;;;3.93;1.83;;;;;;;;;;5032765;28;20437;-85
2021/08/26 10:15:01;;;;;;;6.13;1.53;;;;;;;;;;5034143;28;20483;-77
2021/08/26 10:17:27;;;;;;;7.83;1.93;;;21.50;1.00;;;;;;5028301;28;20418;-77
2021/08/26 10:19:52;;;;;;;4.60;1.70;;;21.30;1.00;;;;;;5032957;28;20446;-78
2021/08/26 10:22:18;;;;;;;3.07;1.50;;;21.10;1.00;;;;;;5031793;28;20509;-78
2021/08/26 10:24:44;;;;;;;7.80;2.03;;;20.60;1.00;;;;;;5029177;28;20257;-78
2021/08/26 10:27:14;;;;;;;4.30;1.20;;;20.50;1.00;;;;;;5018532;28;20192;-77
2021/08/26 10:29:48;;;;;;;2.03;1.53;;;20.40;1.00;;;;;;5030973;28;21021;-77
2021/08/26 10:32:24;;;;;;;4.23;1.53;;;20.40;1.00;;;;;;5044463;28;20438;-78
2021/08/26 10:35:19;;;;;;;4.13;1.63;;;20.40;1.00;;;;;;5043157;28;20432;-77
2021/08/26 10:37:54;;;;;;;4.87;1.37;;;20.30;1.00;;;;;;5043304;28;20468;-76
2021/08/26 10:40:32;;;;;;;5.37;1.70;;;20.40;1.00;;;;;;5081429;28;20464;-77
2021/08/26 10:43:01;;;;;;;4.17;2.37;;;20.40;1.00;;;;;;5074584;28;20398;-76
2021/08/26 10:45:57;;;;;;;3.87;1.80;;;20.30;1.00;;;;;;5061791;28;20458;-76
2021/08/26 10:48:25;;;;;;;1.97;1.23;;;20.30;1.00;;;;;;5066040;28;20440;-76
2021/08/26 10:51:04;;;;;;;2.33;1.43;;;20.30;1.00;;;;;;5069950;28;20755;-77
2021/08/26 10:53:40;;;;;;;4.97;1.73;;;20.10;1.00;;;;;;5064465;28;20899;-78
2021/08/26 10:56:22;;;;;;;4.30;1.40;;;20.10;1.00;;;;;;5073456;28;20744;-79
2021/08/26 10:58:50;;;;;;;2.43;1.47;;;20.10;1.00;;;;;;5072911;28;20430;-79
2021/08/26 11:01:28;;;;;;;4.30;1.40;;;20.00;1.00;;;;;;5073038;28;20444;-78
2021/08/26 11:03:57;;;;;;;5.17;1.73;;;20.10;1.00;;;;;;5068085;28;20463;-77
2021/08/26 11:06:27;;;;;;;5.30;1.87;;;20.30;1.00;;;;;;5059333;28;20401;-77
2021/08/26 11:08:56;;;;;;;2.40;1.53;;;20.50;1.00;;;;;;5053807;28;20390;-77
2021/08/26 11:11:30;;;;;;;7.13;1.40;;;20.80;1.00;;;;;;5060191;28;20401;-78
2021/08/26 11:14:24;;;;;;;2.70;1.43;;;20.90;1.00;;;;;;5073816;28;20446;-78
2021/08/26 11:17:25;;;;;;;2.37;1.83;;;21.00;1.00;;;;;;5073884;28;20504;-77
2021/08/26 11:19:51;;;;;;;1.83;1.20;;;21.40;1.00;;;;;;5074258;28;20394;-76
2021/08/26 11:22:17;;;;;;;3.60;1.63;;;21.20;1.00;;;;;;5061637;28;20478;-84
2021/08/26 11:25:00;;;;;;;3.77;1.30;;;21.20;1.00;;;;;;5053744;28;20486;-83
2021/08/26 11:27:31;;;;;;;4.63;1.53;;;21.20;1.00;;;;;;5053995;28;20154;-78
2021/08/26 11:30:21;;;;;;;1.43;1.30;;;21.50;1.00;;;;;;5054037;28;20939;-76
2021/08/26 11:32:47;;;;;;;4.83;1.70;;;21.70;1.00;;;;;;5064274;28;20475;-77
2021/08/26 11:35:13;;;;;;;6.00;1.63;;;21.80;1.00;;;;;;5054210;28;20429;-77
2021/08/26 11:37:39;;;;;;;2.37;1.30;;;21.70;1.00;;;;;;5053334;28;20166;-77
2021/08/26 11:40:13;;;;;;;4.93;1.23;;;21.50;1.00;;;;;;5058786;28;20446;-78
2021/08/26 11:42:42;;;;;;;3.20;1.73;;;21.30;1.00;;;;;;5062897;28;20415;-81
2021/08/26 11:45:12;;;;;;;4.20;1.23;;;21.10;1.00;;;;;;5072382;28;20453;-82
2021/08/26 11:47:47;;;;;;;5.87;1.77;;;21.10;1.00;;;;;;5072996;28;20410;-80
2021/08/26 11:50:16;;;;;;;2.80;1.37;;;21.20;1.00;;;;;;5072964;28;20414;-81
2021/08/26 11:52:46;;;;;;;3.17;1.50;;;21.30;1.00;;;;;;5072607;28;20417;-79
2021/08/26 11:55:12;;;;;;;2.50;1.30;;;21.30;1.00;;;;;;5072741;28;20407;-77
2021/08/26 11:57:37;;;;;;;2.43;1.80;;;21.40;1.00;;;;;;5053125;28;20427;-77
2021/08/26 12:00:08;;;;;;;1.90;1.03;;;21.30;1.00;;;;;;5053345;28;20946;-77
2021/08/26 12:02:36;;;;;;;1.70;1.40;;;21.40;1.00;;;;;;5059195;28;20199;-78
2021/08/26 12:05:12;;;;;;;2.13;1.13;;;21.30;1.00;;;;;;5073661;28;20457;-77
2021/08/26 12:07:40;;;;;;;3.10;1.20;;;21.30;1.00;;;;;;5073364;28;20412;-77
2021/08/26 12:10:17;;;;;;;2.43;1.00;;;21.10;1.00;;;;;;5073563;28;20727;-78
2021/08/26 12:12:56;;;;;;;2.23;1.10;;;21.10;1.00;;;;;;5073505;28;20390;-78
2021/08/26 12:15:39;;;;;;;1.47;1.23;;;21.00;1.00;;;;;;5073366;28;20896;-78
2021/08/26 12:18:36;;;;;;;4.57;1.10;;;20.90;1.00;;;;;;5073206;28;20398;-79
2021/08/26 12:21:07;;;;;;;3.07;1.23;;;21.00;1.00;;;;;;5072276;28;20444;-78
2021/08/26 12:23:36;;;;;;;2.10;1.20;;;21.00;1.00;;;;;;5085328;28;20486;-77
2021/08/26 12:26:15;;;;;;;1.20;1.00;;;21.00;1.00;;;;;;5064224;28;20449;-78
2021/08/26 12:28:50;;;;;;;1.30;1.20;;;21.30;1.00;;;;;;5055282;28;20430;-78
2021/08/26 12:31:19;;;;;;;1.83;1.33;;;21.20;1.00;;;;;;5076950;28;21023;-78
2021/08/26 12:34:06;;;;;;;2.87;1.37;;;21.50;1.00;;;;;;5074984;28;20408;-77
2021/08/26 12:36:34;;;;;;;3.20;1.10;;;21.50;1.00;;;;;;5075703;28;20945;-77
2021/08/26 12:39:00;;;;;;;1.50;1.00;;;21.80;1.00;;;;;;5075975;28;20406;-77
2021/08/26 12:41:26;;;;;;;2.77;1.20;;;21.80;1.00;;;;;;5075926;28;20406;-77
2021/08/26 12:43:53;;;;;;;2.17;1.20;;;22.40;1.00;;;;;;5075569;28;20661;-78
2021/08/26 12:46:48;;;;;;;1.30;1.20;;;22.50;1.00;;;;;;5074360;28;20491;-78
2021/08/26 12:49:14;;;;;;;1.20;1.10;;;22.70;1.00;;;;;;5074609;28;20419;-78
2021/08/26 12:51:54;;;;;;;2.83;1.33;;;22.70;1.00;;;;;;5083129;28;20425;-77
2021/08/26 12:54:20;;;;;;;1.23;1.13;;;22.70;1.00;;;;;;5096351;28;20162;-77
2021/08/26 12:56:57;;;;;;;2.77;1.17;;;22.80;1.00;;;;;;5084526;28;20497;-77
2021/08/26 12:59:38;;;;;;;2.00;1.20;;;22.70;1.00;;;;;;5073354;28;20186;-77
2021/08/26 13:02:08;;;;;;;1.53;1.30;;;22.70;1.00;;;;;;5069310;28;20501;-76
2021/08/26 13:04:37;;;;;;;2.90;1.40;;;22.70;1.00;;;;;;5056915;28;20854;-77
2021/08/26 13:07:21;;;;;;;1.37;1.27;;;22.70;1.00;;;;;;5061587;28;20485;-77
2021/08/26 13:10:04;;;;;;;1.70;1.60;;;22.70;1.00;;;;;;5069446;28;20437;-77
2021/08/26 13:12:30;;;;;;;3.17;1.60;;;22.40;1.00;;;;;;5071470;28;20781;-77
2021/08/26 13:14:57;;;;;;;2.33;1.57;;;22.30;1.00;;;;;;5076266;28;20414;-77
2021/08/26 13:17:25;;;;;;;3.37;1.30;;;22.00;1.00;;;;;;5076349;28;20745;-77
2021/08/26 13:19:54;;;;;;;2.67;1.60;;;22.20;1.00;;;;;;5073669;28;20421;-78
2021/08/26 13:22:22;;;;;;;2.47;1.53;;;22.10;1.00;;;;;;5068214;28;20450;-76
2021/08/26 13:25:00;;;;;;;3.07;1.70;;;22.10;1.00;;;;;;5085435;28;20455;-77
2021/08/26 13:27:31;;;;;;;2.10;1.20;;;22.20;1.00;;;;;;5084079;28;20499;-78
2021/08/26 13:30:09;;;;;;;5.70;1.50;;;22.30;1.00;;;;;;5057282;28;20441;-77
2021/08/26 13:32:36;;;;;;;5.07;1.67;;;22.30;1.00;;;;;;5054952;28;20917;-77
2021/08/26 13:35:09;;;;;;;9.10;2.00;;;22.10;1.00;;;;;;5055945;28;20439;-77
2021/08/26 13:37:46;;;;;;;5.30;1.83;;;22.10;1.00;;;;;;5056281;28;20490;-77
2021/08/26 13:40:15;;;;;;;1.20;1.10;;;22.30;1.00;;;;;;5061898;28;20424;-77
2021/08/26 13:42:42;;;;;;;1.53;1.40;;;22.30;1.00;;;;;;5069838;28;20454;-77
2021/08/26 13:45:09;;;;;;;2.23;1.40;;;22.30;1.00;;;;;;5072593;28;20467;-78
2021/08/26 13:47:36;;;;;;;2.10;1.53;;;;;;;;;;5055725;28;20401;-77
2021/08/26 13:50:02;;;;;;;3.90;1.40;;;22.30;1.00;;;;;;5058379;28;20410;-77